Time;durP1;ratioP1;P1;durP2;ratioP2;P2;SDS_P1;SDS_P2;PMS_P1;PMS_P2;Temp;Humidity;BMP_temperature;BMP_pressure;BME280_temperature;BME280_humidity;BME280_pressure;Samples;Min_cycle;Max_cycle;Signal;HPM_P1;HPM_P2
2022/09/09 00:01:08;;;;;;;79.78;15.32;;;8.80;99.90;;;;;;6152409;23;20097;-76
2022/09/09 00:03:46;;;;;;;72.88;12.80;;;8.90;99.90;;;;;;6103049;23;20017;-75
2022/09/09 00:06:22;;;;;;;77.38;13.45;;;8.90;99.90;;;;;;6153036;23;20068;-76
2022/09/09 00:09:02;;;;;;;67.22;13.32;;;9.00;99.90;;;;;;6153260;23;20045;-75
2022/09/09 00:11:38;;;;;;;64.13;11.77;;;9.10;99.90;;;;;;6154165;23;20029;-76
2022/09/09 00:14:13;;;;;;;61.17;11.18;;;9.10;99.90;;;;;;6153871;23;20021;-76
2022/09/09 00:16:50;;;;;;;52.58;9.52;;;9.10;99.90;;;;;;6155057;23;20017;-76
2022/09/09 00:19:24;;;;;;;42.30;10.13;;;9.10;99.90;;;;;;6153524;23;20030;-75
2022/09/09 00:22:05;;;;;;;56.85;11.70;;;9.20;99.90;;;;;;6127749;23;20025;-76
2022/09/09 00:24:40;;;;;;;41.55;10.93;;;9.20;99.90;;;;;;6153085;23;20482;-77
2022/09/09 00:27:17;;;;;;;39.63;8.70;;;9.30;99.90;;;;;;6154464;23;20049;-76
2022/09/09 00:29:54;;;;;;;46.65;10.68;;;9.20;99.90;;;;;;6153585;23;20432;-75
2022/09/09 00:32:26;;;;;;;44.65;10.85;;;9.20;99.90;;;;;;6154242;23;20030;-75
2022/09/09 00:34:59;;;;;;;51.03;10.35;;;9.20;99.90;;;;;;6129486;23;20028;-75
2022/09/09 00:37:31;;;;;;;47.60;11.25;;;9.20;99.90;;;;;;6153306;23;20216;-75
2022/09/09 00:40:03;;;;;;;40.08;10.95;;;9.10;99.90;;;;;;6127622;23;20022;-76
2022/09/09 00:42:42;;;;;;;50.22;12.23;;;9.10;99.90;;;;;;6154083;23;20021;-75
2022/09/09 00:45:42;;;;;;;44.55;10.10;;;9.10;99.90;;;;;;6103226;23;20032;-76
2022/09/09 00:48:13;;;;;;;51.72;9.52;;;9.00;99.90;;;;;;6125858;23;20021;-75
2022/09/09 00:50:52;;;;;;;51.55;9.07;;;9.00;99.90;;;;;;6154200;23;20025;-76
2022/09/09 00:53:41;;;;;;;31.67;8.55;;;9.10;99.90;;;;;;6154088;23;20036;-76
2022/09/09 00:56:14;;;;;;;30.88;7.65;;;9.20;99.90;;;;;;6101474;23;20053;-75
2022/09/09 00:58:52;;;;;;;22.40;7.03;;;9.20;99.90;;;;;;6127054;23;20392;-75
2022/09/09 01:01:20;;;;;;;18.40;7.55;;;9.20;99.90;;;;;;6125222;23;20412;-75
2022/09/09 01:03:54;;;;;;;27.38;8.02;;;9.30;99.90;;;;;;6127647;23;20032;-75
2022/09/09 01:06:31;;;;;;;29.83;8.52;;;9.30;99.90;;;;;;6150046;23;20391;-75
2022/09/09 01:09:16;;;;;;;26.00;7.50;;;9.30;99.90;;;;;;6126151;23;20025;-75
2022/09/09 01:11:55;;;;;;;20.00;7.40;;;9.30;99.90;;;;;;6126364;23;20029;-75
2022/09/09 01:14:41;;;;;;;28.83;7.72;;;9.30;99.90;;;;;;6149879;23;20021;-75
2022/09/09 01:17:17;;;;;;;14.30;7.15;;;9.20;99.90;;;;;;6126319;23;20021;-74
2022/09/09 01:20:09;;;;;;;20.38;5.95;;;9.20;99.90;;;;;;6101078;23;20061;-74
2022/09/09 01:22:58;;;;;;;20.80;6.50;;;9.20;99.90;;;;;;6127595;23;20045;-75
2022/09/09 01:25:51;;;;;;;17.13;6.50;;;9.20;99.90;;;;;;6101237;23;20032;-75
2022/09/09 01:28:29;;;;;;;15.82;6.25;;;9.30;99.90;;;;;;6127399;23;20022;-75
2022/09/09 01:31:04;;;;;;;11.27;5.97;;;9.30;99.90;;;;;;6126409;23;20454;-75
2022/09/09 01:33:39;;;;;;;71.50;11.15;;;9.30;99.90;;;;;;6150120;23;20029;-74
2022/09/09 01:36:10;;;;;;;58.15;9.65;;;9.30;99.90;;;;;;6153042;23;20029;-74
2022/09/09 01:38:45;;;;;;;40.40;8.60;;;9.40;99.90;;;;;;6125383;23;20048;-75
2022/09/09 01:41:13;;;;;;;37.72;8.30;;;9.40;99.90;;;;;;6152361;23;20032;-74
2022/09/09 01:44:04;;;;;;;43.03;8.05;;;9.40;99.90;;;;;;6126109;23;20028;-74
2022/09/09 01:46:33;;;;;;;29.85;7.80;;;9.40;99.90;;;;;;6125671;23;20021;-75
2022/09/09 01:49:07;;;;;;;27.65;7.43;;;9.40;99.90;;;;;;6101867;23;20395;-75
2022/09/09 01:51:36;;;;;;;42.65;8.15;;;9.30;99.90;;;;;;6125409;23;20021;-74
2022/09/09 01:54:08;;;;;;;23.95;6.95;;;9.30;99.90;;;;;;6126810;23;20121;-75
2022/09/09 01:56:48;;;;;;;30.02;8.40;;;9.30;99.90;;;;;;6151498;23;20454;-74
2022/09/09 01:59:47;;;;;;;36.15;9.23;;;9.30;99.90;;;;;;6153275;23;20021;-75
2022/09/09 02:02:19;;;;;;;35.50;7.57;;;9.20;99.90;;;;;;6149677;23;20085;-74
2022/09/09 02:05:30;;;;;;;41.20;8.18;;;9.30;99.90;;;;;;6142943;23;20029;-74
2022/09/09 02:08:07;;;;;;;41.80;7.80;;;9.30;99.90;;;;;;6127053;23;20021;-75
2022/09/09 02:10:51;;;;;;;18.05;6.53;;;9.20;99.90;;;;;;6125383;23;20021;-74
2022/09/09 02:13:36;;;;;;;29.10;6.70;;;9.20;99.90;;;;;;6126485;23;20059;-75
2022/09/09 02:16:09;;;;;;;30.73;7.10;;;9.30;99.90;;;;;;6125695;23;20425;-75
2022/09/09 02:18:43;;;;;;;37.83;7.57;;;9.30;99.90;;;;;;6153215;23;20032;-74
2022/09/09 02:21:14;;;;;;;26.70;7.35;;;9.20;99.90;;;;;;6150802;23;20025;-75
2022/09/09 02:23:44;;;;;;;20.35;7.40;;;9.20;99.90;;;;;;6152353;23;20051;-76
2022/09/09 02:26:21;;;;;;;21.73;6.85;;;9.20;99.90;;;;;;6152918;23;20489;-75
2022/09/09 02:28:57;;;;;;;22.65;7.25;;;9.20;99.90;;;;;;6125185;23;20032;-75
2022/09/09 02:31:26;;;;;;;19.15;6.25;;;9.20;99.90;;;;;;6125737;23;20021;-75
2022/09/09 02:34:04;;;;;;;12.88;6.43;;;9.10;99.90;;;;;;6151318;23;20108;-75
2022/09/09 02:36:34;;;;;;;17.48;6.25;;;9.10;99.90;;;;;;6102754;23;20358;-75
2022/09/09 02:39:05;;;;;;;16.90;6.10;;;9.20;99.90;;;;;;6152061;23;20450;-75
2022/09/09 02:41:39;;;;;;;23.70;6.82;;;9.20;99.90;;;;;;6126880;23;20059;-75
2022/09/09 02:44:11;;;;;;;17.50;6.25;;;9.30;99.90;;;;;;6151969;23;20041;-75
2022/09/09 02:47:03;;;;;;;23.33;8.05;;;9.30;99.90;;;;;;6151766;23;20021;-75
2022/09/09 02:49:44;;;;;;;32.60;8.73;;;9.30;99.90;;;;;;6126517;23;20044;-76
2022/09/09 02:52:16;;;;;;;32.20;7.03;;;9.30;99.90;;;;;;6148602;23;20120;-74
2022/09/09 02:54:44;;;;;;;26.83;8.13;;;9.30;99.90;;;;;;6151082;23;20340;-76
2022/09/09 02:57:17;;;;;;;34.40;8.23;;;9.30;99.90;;;;;;6100840;23;20371;-75
2022/09/09 02:59:48;;;;;;;29.58;6.93;;;9.30;99.90;;;;;;6126856;23;20036;-76
2022/09/09 03:02:18;;;;;;;24.83;6.93;;;9.30;99.90;;;;;;6126823;23;20021;-76
2022/09/09 03:04:51;;;;;;;35.35;8.00;;;9.30;99.90;;;;;;6151869;23;20021;-75
2022/09/09 03:07:19;;;;;;;25.38;7.60;;;9.30;99.90;;;;;;6125217;23;20335;-76
2022/09/09 03:09:48;;;;;;;23.17;6.78;;;9.20;99.90;;;;;;6126312;23;20489;-75
2022/09/09 03:12:17;;;;;;;22.70;8.52;;;9.20;99.90;;;;;;6128218;23;20030;-75
2022/09/09 03:14:46;;;;;;;24.95;8.50;;;9.20;99.90;;;;;;6127322;23;20103;-75
2022/09/09 03:17:14;;;;;;;27.75;7.30;;;9.10;99.90;;;;;;6128103;23;20022;-76
2022/09/09 03:19:52;;;;;;;21.33;7.53;;;9.10;99.90;;;;;;6128257;23;20030;-75
2022/09/09 03:22:20;;;;;;;21.30;7.22;;;9.10;99.90;;;;;;6155480;23;20350;-75
2022/09/09 03:24:48;;;;;;;28.10;7.20;;;9.00;99.90;;;;;;6126646;23;20025;-75
2022/09/09 03:27:15;;;;;;;37.08;8.38;;;9.00;99.90;;;;;;6153473;23;20021;-75
2022/09/09 03:29:44;;;;;;;22.27;7.25;;;9.00;99.90;;;;;;6152854;23;20025;-76
2022/09/09 03:32:17;;;;;;;17.77;7.13;;;8.90;99.90;;;;;;6128549;23;20344;-76
2022/09/09 03:34:44;;;;;;;23.80;6.13;;;8.90;99.90;;;;;;6126832;23;20471;-77
2022/09/09 03:37:16;;;;;;;22.27;7.15;;;8.80;99.90;;;;;;6103910;23;20021;-76
2022/09/09 03:39:43;;;;;;;19.08;8.02;;;8.80;99.90;;;;;;6103128;23;20406;-76
2022/09/09 03:42:18;;;;;;;19.83;7.28;;;8.90;99.90;;;;;;6127650;23;20525;-75
2022/09/09 03:44:49;;;;;;;27.15;6.60;;;8.90;99.90;;;;;;6128006;23;20025;-76
2022/09/09 03:47:19;;;;;;;19.10;5.97;;;8.90;99.90;;;;;;6125875;23;20081;-75
2022/09/09 03:49:47;;;;;;;29.13;7.50;;;8.90;99.90;;;;;;6127885;23;20027;-76
2022/09/09 03:52:16;;;;;;;31.92;8.13;;;8.90;99.90;;;;;;6102488;23;20048;-76
2022/09/09 03:54:44;;;;;;;10.80;5.03;;;9.00;99.90;;;;;;6154057;23;20112;-76
2022/09/09 03:57:13;;;;;;;10.60;5.28;;;9.00;99.90;;;;;;6126606;23;20026;-76
2022/09/09 03:59:40;;;;;;;19.42;7.63;;;9.10;99.90;;;;;;6153088;23;20473;-76
2022/09/09 04:02:08;;;;;;;17.38;6.97;;;9.20;99.90;;;;;;6152383;23;20029;-76
2022/09/09 04:04:39;;;;;;;19.98;7.60;;;9.30;99.90;;;;;;6127419;23;20092;-76
2022/09/09 04:07:17;;;;;;;11.18;5.90;;;9.30;99.90;;;;;;6127821;23;20076;-72
2022/09/09 04:09:45;;;;;;;17.10;8.13;;;9.30;99.90;;;;;;6152716;23;20021;-71
2022/09/09 04:12:14;;;;;;;15.50;8.00;;;9.30;99.90;;;;;;6152687;23;20021;-71
2022/09/09 04:14:42;;;;;;;10.65;5.95;;;9.40;99.90;;;;;;6127518;23;20025;-72
2022/09/09 04:17:10;;;;;;;14.35;5.63;;;9.40;99.90;;;;;;6154483;23;20022;-73
2022/09/09 04:19:38;;;;;;;15.82;5.30;;;9.40;99.90;;;;;;6126209;23;20029;-73
2022/09/09 04:22:06;;;;;;;15.88;5.60;;;9.50;99.90;;;;;;6153813;23;20021;-73
2022/09/09 04:24:35;;;;;;;20.45;6.30;;;9.50;99.90;;;;;;6127795;23;20071;-72
2022/09/09 04:27:02;;;;;;;12.35;4.47;;;9.60;99.90;;;;;;6154692;23;20301;-72
2022/09/09 04:29:31;;;;;;;10.73;5.60;;;9.60;99.90;;;;;;6102160;23;20459;-72
2022/09/09 04:31:58;;;;;;;14.40;5.43;;;9.70;99.90;;;;;;6128141;23;20031;-71
2022/09/09 04:34:54;;;;;;;11.55;5.20;;;9.70;99.90;;;;;;6151125;23;20112;-71
2022/09/09 04:37:24;;;;;;;14.95;5.55;;;9.70;99.90;;;;;;6154411;23;20422;-74
2022/09/09 04:39:59;;;;;;;14.77;4.70;;;9.70;99.90;;;;;;6152835;23;20041;-71
2022/09/09 04:42:30;;;;;;;10.23;4.82;;;9.70;99.90;;;;;;6126775;23;20117;-71
2022/09/09 04:45:02;;;;;;;12.13;5.25;;;9.70;99.90;;;;;;6150799;23;20119;-72
2022/09/09 04:47:35;;;;;;;16.35;5.60;;;9.70;99.90;;;;;;6103607;23;20022;-72
2022/09/09 04:50:05;;;;;;;11.45;5.35;;;9.80;99.90;;;;;;6153840;23;20022;-71
2022/09/09 04:52:34;;;;;;;15.13;5.80;;;9.80;99.90;;;;;;6128682;23;20049;-71
2022/09/09 04:55:04;;;;;;;18.92;5.43;;;9.90;99.90;;;;;;6151707;23;20046;-72
2022/09/09 04:57:32;;;;;;;19.38;6.22;;;10.00;99.90;;;;;;6152618;23;20017;-71
2022/09/09 05:00:00;;;;;;;22.83;7.25;;;10.10;99.90;;;;;;6153843;23;20443;-72
2022/09/09 05:02:39;;;;;;;29.08;7.38;;;10.30;99.90;;;;;;6126331;23;20463;-72
2022/09/09 05:05:07;;;;;;;17.10;5.93;;;10.40;99.90;;;;;;6154347;23;20029;-72
2022/09/09 05:07:34;;;;;;;15.63;5.95;;;10.40;99.90;;;;;;6125349;23;20021;-72
2022/09/09 05:10:05;;;;;;;18.92;5.88;;;10.40;99.90;;;;;;6125848;23;20022;-71
2022/09/09 05:12:33;;;;;;;14.38;5.13;;;10.40;99.90;;;;;;6152252;23;20104;-70
2022/09/09 05:15:00;;;;;;;26.40;6.85;;;10.40;99.90;;;;;;6126158;23;20056;-71
2022/09/09 05:17:29;;;;;;;11.68;5.30;;;10.50;99.90;;;;;;6125700;23;20025;-70
2022/09/09 05:19:57;;;;;;;11.98;5.38;;;10.60;99.90;;;;;;6150275;23;20467;-70
2022/09/09 05:22:24;;;;;;;10.80;5.28;;;10.70;99.90;;;;;;6125714;23;20422;-70
2022/09/09 05:24:54;;;;;;;15.68;5.28;;;10.80;99.90;;;;;;6150773;23;20021;-71
2022/09/09 05:27:23;;;;;;;18.63;5.82;;;10.80;99.90;;;;;;6126972;23;20466;-70
2022/09/09 05:29:51;;;;;;;19.60;6.25;;;10.70;99.90;;;;;;6123813;23;20022;-71
2022/09/09 05:32:18;;;;;;;26.08;7.80;;;10.60;99.90;;;;;;6124605;23;20032;-74
2022/09/09 05:34:49;;;;;;;15.68;5.97;;;10.40;99.90;;;;;;6123086;23;20057;-74
2022/09/09 05:37:18;;;;;;;16.88;6.22;;;10.30;99.90;;;;;;6099245;23;20470;-70
2022/09/09 05:39:46;;;;;;;23.00;6.63;;;10.40;99.90;;;;;;6123355;23;20033;-71
2022/09/09 05:42:13;;;;;;;22.23;7.18;;;10.40;99.90;;;;;;6123311;23;20026;-74
2022/09/09 05:44:42;;;;;;;21.45;7.30;;;10.30;99.90;;;;;;6123523;23;20075;-77
2022/09/09 05:47:09;;;;;;;23.83;7.35;;;10.30;99.90;;;;;;6125713;23;20025;-76
2022/09/09 05:49:37;;;;;;;20.13;6.85;;;10.20;99.90;;;;;;6124550;23;20048;-72
2022/09/09 05:52:09;;;;;;;18.45;8.05;;;10.20;99.90;;;;;;6099671;23;20037;-71
2022/09/09 05:54:37;;;;;;;17.75;7.80;;;10.30;99.90;;;;;;6151453;23;20033;-78
2022/09/09 05:57:05;;;;;;;20.70;7.72;;;10.30;99.90;;;;;;6124856;23;20042;-76
2022/09/09 05:59:33;;;;;;;15.05;6.90;;;10.70;99.90;;;;;;6125498;23;20033;-72
2022/09/09 06:02:03;;;;;;;22.02;5.80;;;11.50;99.90;;;;;;6151809;23;20049;-76
2022/09/09 06:04:35;;;;;;;21.48;5.97;;;12.60;99.90;;;;;;6127004;23;20344;-76
2022/09/09 06:07:03;;;;;;;13.07;5.32;;;13.60;99.90;;;;;;6126676;23;20466;-76
2022/09/09 06:09:32;;;;;;;32.28;7.65;;;14.60;99.90;;;;;;6128026;23;20029;-74
2022/09/09 06:12:00;;;;;;;17.27;7.97;;;15.50;99.90;;;;;;6124943;23;20021;-72
2022/09/09 06:14:39;;;;;;;24.40;6.03;;;16.30;99.90;;;;;;6152797;23;20031;-75
2022/09/09 06:17:09;;;;;;;13.65;5.38;;;17.00;99.90;;;;;;6125105;23;20025;-77
2022/09/09 06:19:38;;;;;;;10.73;4.43;;;17.60;99.90;;;;;;6127126;23;20072;-77
2022/09/09 06:22:05;;;;;;;5.93;2.60;;;18.20;99.90;;;;;;6126419;23;20022;-76
2022/09/09 06:24:35;;;;;;;5.63;3.28;;;18.50;99.90;;;;;;6127126;23;20137;-74
2022/09/09 06:27:05;;;;;;;6.13;2.30;;;19.00;99.90;;;;;;6125724;23;20080;-72
2022/09/09 06:29:35;;;;;;;4.68;2.83;;;19.50;99.90;;;;;;6100651;23;20370;-75
2022/09/09 06:32:03;;;;;;;3.50;2.30;;;19.70;99.90;;;;;;6126974;23;20021;-76
2022/09/09 06:34:33;;;;;;;7.38;3.28;;;19.90;99.00;;;;;;6126087;23;20467;-76
2022/09/09 06:37:01;;;;;;;3.65;2.83;;;20.30;97.30;;;;;;6126528;23;20026;-75
2022/09/09 06:39:37;;;;;;;4.85;2.50;;;20.70;95.30;;;;;;6149448;23;20025;-72
2022/09/09 06:42:05;;;;;;;5.82;2.83;;;20.90;93.70;;;;;;6125164;23;20056;-75
2022/09/09 06:44:48;;;;;;;3.95;2.60;;;21.20;92.00;;;;;;6150128;23;20018;-75
2022/09/09 06:47:30;;;;;;;5.00;2.97;;;21.40;90.50;;;;;;6125750;23;20025;-77
2022/09/09 06:50:01;;;;;;;5.55;2.20;;;21.60;88.00;;;;;;6124440;23;20359;-73
2022/09/09 06:52:33;;;;;;;2.90;2.08;;;21.90;86.40;;;;;;6125164;23;20058;-72
2022/09/09 06:55:02;;;;;;;6.40;2.03;;;22.00;81.70;;;;;;6124939;23;20060;-73
2022/09/09 06:57:31;;;;;;;4.63;2.70;;;22.20;79.70;;;;;;6124195;23;20068;-73
2022/09/09 06:59:59;;;;;;;2.97;2.38;;;22.40;77.70;;;;;;6151604;23;20030;-73
2022/09/09 07:02:26;;;;;;;3.53;2.03;;;22.60;75.00;;;;;;6100653;23;20021;-74
2022/09/09 07:04:54;;;;;;;8.65;5.88;;;22.80;72.30;;;;;;6125424;23;20054;-74
2022/09/09 07:07:24;;;;;;;4.30;2.22;;;23.10;71.80;;;;;;6123069;23;20045;-79
2022/09/09 07:09:53;;;;;;;2.00;1.80;;;23.40;69.50;;;;;;6151947;23;20092;-79
2022/09/09 07:12:22;;;;;;;3.45;1.95;;;23.30;66.90;;;;;;6124057;23;20029;-77
2022/09/09 07:14:56;;;;;;;2.70;1.90;;;23.20;66.60;;;;;;6125959;23;20025;-72
2022/09/09 07:17:23;;;;;;;2.55;1.90;;;22.90;65.60;;;;;;6150033;23;20021;-74
2022/09/09 07:19:52;;;;;;;5.63;1.70;;;23.00;66.80;;;;;;6152161;23;20026;-73
2022/09/09 07:22:20;;;;;;;2.83;2.25;;;23.40;65.20;;;;;;6125326;23;20554;-75
2022/09/09 07:24:49;;;;;;;6.53;1.98;;;23.70;63.40;;;;;;6125645;23;20105;-73
2022/09/09 07:27:17;;;;;;;2.08;1.83;;;23.60;63.90;;;;;;6124192;23;20117;-72
2022/09/09 07:29:45;;;;;;;5.63;1.80;;;23.00;65.80;;;;;;6150238;23;20053;-74
2022/09/09 07:32:13;;;;;;;5.75;1.90;;;23.00;63.60;;;;;;6097968;23;20340;-73
2022/09/09 07:34:40;;;;;;;4.85;2.30;;;23.10;64.20;;;;;;6149555;23;20301;-73
2022/09/09 07:37:11;;;;;;;5.18;2.47;;;23.50;62.60;;;;;;6151290;23;20021;-71
2022/09/09 07:39:38;;;;;;;5.53;2.90;;;23.90;60.60;;;;;;6126543;23;20033;-72
2022/09/09 07:42:10;;;;;;;5.10;3.25;;;23.90;61.40;;;;;;6150902;23;20071;-73
2022/09/09 07:44:39;;;;;;;4.38;1.75;;;23.50;61.50;;;;;;6100184;23;20025;-74
2022/09/09 07:47:15;;;;;;;6.28;3.25;;;22.30;64.10;;;;;;6125767;23;20467;-74
2022/09/09 07:49:49;;;;;;;6.93;1.80;;;20.90;64.70;;;;;;6148765;23;20101;-72
2022/09/09 07:52:21;;;;;;;5.05;2.42;;;20.30;66.80;;;;;;6125115;23;20108;-73
2022/09/09 07:54:53;;;;;;;5.13;1.70;;;20.30;69.50;;;;;;6099726;23;20021;-74
2022/09/09 07:57:22;;;;;;;2.85;1.45;;;20.40;69.90;;;;;;6123840;23;20116;-73
2022/09/09 07:59:52;;;;;;;3.00;1.58;;;20.20;68.70;;;;;;6152762;23;20032;-73
2022/09/09 08:02:19;;;;;;;3.92;1.63;;;19.70;70.60;;;;;;6150836;23;20056;-74
2022/09/09 08:04:46;;;;;;;5.45;1.60;;;19.10;71.00;;;;;;6127482;23;20032;-73
2022/09/09 08:07:15;;;;;;;4.45;1.98;;;18.60;72.00;;;;;;6126824;23;20025;-72
2022/09/09 08:09:49;;;;;;;2.90;1.60;;;18.30;72.10;;;;;;6102712;23;20029;-73
2022/09/09 08:12:23;;;;;;;;;;;17.90;73.70;;;;;;6151390;23;20025;-73
2022/09/09 08:14:53;;;;;;;7.80;2.63;;;17.70;75.70;;;;;;6152597;23;20002;-74
2022/09/09 08:17:22;;;;;;;4.10;2.40;;;17.40;77.80;;;;;;6151500;23;20072;-73
2022/09/09 08:19:50;;;;;;;8.00;1.92;;;17.20;78.30;;;;;;6151775;23;20112;-73
2022/09/09 08:22:24;;;;;;;2.95;1.70;;;17.70;79.20;;;;;;6124692;23;20363;-73
2022/09/09 08:24:51;;;;;;;3.25;1.50;;;18.30;76.20;;;;;;6128197;23;20109;-73
2022/09/09 08:27:19;;;;;;;2.90;1.00;;;19.70;74.00;;;;;;6101567;23;20388;-73
2022/09/09 08:29:48;;;;;;;3.17;1.70;;;20.50;64.90;;;;;;6152378;23;20025;-72
2022/09/09 08:32:16;;;;;;;2.78;1.48;;;20.30;62.80;;;;;;6151484;23;20073;-73
2022/09/09 08:34:45;;;;;;;5.97;1.85;;;20.30;64.80;;;;;;6128264;23;20344;-72
2022/09/09 08:37:16;;;;;;;2.55;1.25;;;20.50;65.30;;;;;;6100456;23;20116;-73
2022/09/09 08:39:44;;;;;;;2.20;1.10;;;21.30;67.10;;;;;;6123313;23;20025;-73
2022/09/09 08:42:37;;;;;;;3.70;1.00;;;21.70;64.20;;;;;;6124454;23;20033;-73
2022/09/09 08:45:27;;;;;;;2.38;1.33;;;20.90;64.40;;;;;;6123344;23;20060;-73
2022/09/09 08:48:18;;;;;;;2.70;1.55;;;20.10;67.30;;;;;;6126085;23;20108;-73
2022/09/09 08:50:50;;;;;;;2.08;1.45;;;19.40;70.80;;;;;;6123952;23;20029;-72
2022/09/09 08:53:29;;;;;;;4.63;1.67;;;18.80;71.80;;;;;;6127434;23;20470;-73
2022/09/09 08:55:59;;;;;;;3.17;1.58;;;;;;;;;;6127176;23;20028;-73
2022/09/09 08:58:48;;;;;;;4.93;1.95;;;18.60;72.60;;;;;;6101233;23;20018;-73
2022/09/09 09:01:43;;;;;;;4.32;1.88;;;18.60;75.30;;;;;;6127152;23;20025;-74
2022/09/09 09:04:33;;;;;;;9.25;1.35;;;18.70;74.40;;;;;;6127109;23;20035;-74
2022/09/09 09:07:16;;;;;;;4.85;2.83;;;18.60;74.40;;;;;;6127524;23;20456;-74
2022/09/09 09:09:59;;;;;;;6.80;2.13;;;18.50;75.10;;;;;;6126494;23;20100;-72
2022/09/09 09:12:31;;;;;;;4.23;1.87;;;18.40;75.80;;;;;;6127360;23;20072;-72
2022/09/09 09:15:01;;;;;;;4.70;2.00;;;18.10;76.70;;;;;;6127023;23;20029;-73
2022/09/09 09:17:37;;;;;;;5.40;2.85;;;17.80;77.80;;;;;;6125387;23;20057;-74
2022/09/09 09:20:13;;;;;;;4.82;1.50;;;17.60;78.40;;;;;;6126199;23;20029;-73
2022/09/09 09:22:50;;;;;;;7.70;1.80;;;17.50;77.00;;;;;;6153148;23;20530;-72
2022/09/09 09:25:22;;;;;;;3.88;1.88;;;17.50;76.70;;;;;;6126771;23;20182;-73
2022/09/09 09:28:00;;;;;;;3.47;1.65;;;17.40;79.50;;;;;;6151638;23;20080;-75
2022/09/09 09:30:41;;;;;;;6.13;2.00;;;17.40;79.80;;;;;;6127268;23;20096;-75
2022/09/09 09:33:18;;;;;;;6.95;1.70;;;17.30;77.30;;;;;;6153213;23;20021;-75
2022/09/09 09:35:47;;;;;;;4.32;1.52;;;17.20;78.80;;;;;;6125217;23;20029;-73
2022/09/09 09:38:20;;;;;;;2.88;1.90;;;17.10;80.40;;;;;;6126508;23;20045;-72
2022/09/09 09:40:57;;;;;;;1.52;1.23;;;17.00;82.20;;;;;;6151547;23;20029;-73
2022/09/09 09:43:29;;;;;;;3.67;1.50;;;16.70;81.10;;;;;;6127165;23;20108;-74
2022/09/09 09:45:59;;;;;;;2.47;0.88;;;16.50;83.00;;;;;;6125592;23;20036;-73
2022/09/09 09:48:29;;;;;;;1.92;1.15;;;16.20;80.70;;;;;;6126657;23;20060;-73
2022/09/09 09:51:02;;;;;;;8.93;1.17;;;16.00;80.40;;;;;;6151951;23;20021;-74
2022/09/09 09:53:33;;;;;;;4.05;1.05;;;15.80;82.30;;;;;;6152833;23;20026;-75
2022/09/09 09:56:03;;;;;;;5.30;1.25;;;15.70;81.70;;;;;;6152492;23;20070;-74
2022/09/09 09:58:36;;;;;;;4.75;1.30;;;15.60;82.10;;;;;;6125939;23;20105;-75
2022/09/09 10:01:04;;;;;;;2.65;1.23;;;15.60;83.50;;;;;;6152785;23;20026;-74
2022/09/09 10:03:40;;;;;;;5.07;1.00;;;15.60;84.40;;;;;;6100755;23;20026;-72
2022/09/09 10:06:08;;;;;;;2.40;1.20;;;15.60;85.50;;;;;;6102192;23;20114;-73
2022/09/09 10:08:46;;;;;;;3.80;1.05;;;15.70;84.80;;;;;;6127443;23;20052;-77
2022/09/09 10:11:42;;;;;;;2.30;1.05;;;15.80;83.10;;;;;;6102607;23;20057;-77
2022/09/09 10:14:20;;;;;;;2.58;1.65;;;15.90;83.10;;;;;;6151944;23;20033;-78
2022/09/09 10:17:04;;;;;;;3.53;0.90;;;16.00;81.90;;;;;;6150732;23;20060;-80
2022/09/09 10:19:35;;;;;;;1.45;0.80;;;16.00;81.50;;;;;;6125819;23;20084;-78
2022/09/09 10:22:26;;;;;;;1.60;0.90;;;16.00;80.20;;;;;;6152763;23;20025;-78
2022/09/09 10:25:31;;;;;;;4.80;1.10;;;16.00;80.30;;;;;;6151694;23;20025;-78
2022/09/09 10:28:31;;;;;;;2.30;1.10;;;16.10;80.80;;;;;;6152833;23;20055;-78
2022/09/09 10:31:13;;;;;;;1.55;1.02;;;16.10;79.30;;;;;;6125093;23;20489;-77
2022/09/09 10:33:51;;;;;;;2.65;1.02;;;16.00;78.20;;;;;;6153433;23;20021;-78
2022/09/09 10:36:23;;;;;;;3.20;0.98;;;15.90;80.10;;;;;;6150731;23;20375;-77
2022/09/09 10:39:00;;;;;;;2.63;0.95;;;15.80;80.80;;;;;;6127234;23;20025;-78
2022/09/09 10:41:46;;;;;;;4.43;1.42;;;16.20;81.50;;;;;;6128132;23;20033;-73
2022/09/09 10:44:39;;;;;;;2.47;1.00;;;18.30;80.20;;;;;;6153339;23;20033;-73
2022/09/09 10:47:38;;;;;;;2.58;0.90;;;20.50;72.30;;;;;;6152314;23;20100;-72
2022/09/09 10:50:38;;;;;;;1.45;0.90;;;21.10;67.20;;;;;;6146772;23;20021;-72
2022/09/09 10:53:20;;;;;;;1.25;1.00;;;21.10;68.30;;;;;;6153244;23;20465;-74
2022/09/09 10:55:59;;;;;;;4.97;1.20;;;20.70;67.60;;;;;;6150977;23;20032;-73
2022/09/09 10:58:34;;;;;;;1.83;0.93;;;20.40;67.10;;;;;;6149253;23;20040;-73
2022/09/09 11:01:13;;;;;;;3.13;1.10;;;20.40;69.00;;;;;;6150843;23;20025;-74
2022/09/09 11:03:42;;;;;;;6.00;1.55;;;20.40;67.30;;;;;;6123643;23;20033;-74
2022/09/09 11:06:17;;;;;;;3.17;1.05;;;20.40;66.70;;;;;;6151793;23;20025;-74
2022/09/09 11:08:47;;;;;;;2.40;1.48;;;20.10;67.60;;;;;;6150218;23;20022;-71
2022/09/09 11:11:20;;;;;;;3.05;0.98;;;20.40;70.50;;;;;;6124112;23;20537;-74
2022/09/09 11:13:55;;;;;;;3.10;1.08;;;21.10;68.80;;;;;;6151005;23;20328;-74
2022/09/09 11:16:30;;;;;;;1.63;1.23;;;21.80;66.60;;;;;;6151779;23;20025;-74
2022/09/09 11:19:03;;;;;;;1.20;1.05;;;22.40;62.10;;;;;;6150182;23;20470;-73
2022/09/09 11:21:37;;;;;;;2.80;1.40;;;22.60;59.20;;;;;;6151623;23;20049;-71
2022/09/09 11:24:15;;;;;;;3.70;1.20;;;22.60;62.10;;;;;;6150586;23;20041;-73
2022/09/09 11:26:49;;;;;;;1.85;1.30;;;24.00;60.70;;;;;;6150513;23;20021;-73
2022/09/09 11:30:02;;;;;;;3.70;1.63;;;25.30;56.20;;;;;;6151274;23;20025;-73
2022/09/09 11:33:05;;;;;;;1.75;1.45;;;26.60;53.50;;;;;;6147604;23;20108;-75
2022/09/09 11:35:46;;;;;;;1.92;1.20;;;27.80;50.80;;;;;;6083928;23;20052;-75
2022/09/09 11:38:28;;;;;;;1.35;1.25;;;28.90;49.10;;;;;;6103683;23;20467;-71
2022/09/09 11:41:00;;;;;;;1.77;1.17;;;29.20;46.70;;;;;;6126140;23;20032;-71
2022/09/09 11:43:32;;;;;;;2.03;1.10;;;29.30;48.60;;;;;;6154112;23;20097;-72
2022/09/09 11:46:03;;;;;;;2.58;1.20;;;29.70;46.60;;;;;;6148529;23;20095;-72
2022/09/09 11:48:35;;;;;;;2.22;1.10;;;29.80;45.70;;;;;;6151844;23;20084;-73
2022/09/09 11:51:07;;;;;;;;;;;29.30;48.90;;;;;;6150249;23;20332;-72
2022/09/09 11:53:35;;;;;;;1.67;1.27;;;29.60;47.10;;;;;;6125944;23;20011;-72
2022/09/09 11:56:11;;;;;;;2.13;1.13;;;30.20;45.20;;;;;;6149884;23;20120;-73
2022/09/09 11:58:45;;;;;;;4.30;2.03;;;30.70;44.90;;;;;;6152088;23;20022;-73
2022/09/09 12:01:41;;;;;;;4.43;1.20;;;30.90;44.50;;;;;;6153431;23;20032;-71
2022/09/09 12:04:30;;;;;;;2.95;1.48;;;31.10;41.80;;;;;;6152670;23;20039;-72
2022/09/09 12:07:02;;;;;;;2.67;1.40;;;28.30;44.70;;;;;;6153229;23;20026;-75
2022/09/09 12:09:51;;;;;;;4.60;1.77;;;26.90;45.50;;;;;;6152816;23;20021;-73
2022/09/09 12:12:33;;;;;;;6.35;2.28;;;24.70;48.10;;;;;;6153992;23;20096;-72
2022/09/09 12:15:21;;;;;;;2.33;1.95;;;22.70;52.30;;;;;;6127504;23;20033;-73
2022/09/09 12:17:51;;;;;;;3.03;1.50;;;21.50;53.90;;;;;;6152225;23;20065;-72
2022/09/09 12:20:23;;;;;;;11.35;2.28;;;20.40;56.10;;;;;;6153847;23;20021;-73
2022/09/09 12:23:26;;;;;;;7.30;2.20;;;19.80;57.40;;;;;;6152586;23;20060;-73
2022/09/09 12:26:05;;;;;;;2.38;1.85;;;19.50;58.80;;;;;;6152087;23;20030;-72
2022/09/09 12:28:48;;;;;;;2.10;1.75;;;18.90;59.10;;;;;;6152492;23;20022;-72
2022/09/09 12:31:25;;;;;;;4.28;1.90;;;18.50;60.60;;;;;;6152052;23;20036;-78
2022/09/09 12:33:54;;;;;;;2.65;1.52;;;18.10;63.00;;;;;;6150798;23;20035;-80
2022/09/09 12:36:28;;;;;;;2.97;1.70;;;17.90;64.90;;;;;;6101859;23;20068;-78
2022/09/09 12:39:01;;;;;;;1.52;1.42;;;17.60;67.10;;;;;;6127045;23;20017;-81
2022/09/09 12:41:30;;;;;;;3.72;1.50;;;17.50;68.50;;;;;;6150192;23;20029;-80
2022/09/09 12:44:08;;;;;;;2.47;1.00;;;;;;;;;;6151959;23;20430;-73
2022/09/09 12:46:43;;;;;;;4.93;1.52;;;17.30;70.20;;;;;;6126298;23;20030;-79
2022/09/09 12:49:33;;;;;;;3.67;1.80;;;17.40;70.10;;;;;;6126488;23;20028;-82
2022/09/09 12:52:05;;;;;;;4.45;1.40;;;17.70;71.60;;;;;;6124602;23;20027;-75
2022/09/09 12:54:34;;;;;;;3.30;1.58;;;18.00;69.40;;;;;;6151674;23;20450;-81
2022/09/09 12:57:02;;;;;;;1.95;1.45;;;18.40;66.10;;;;;;6125052;23;20133;-81
2022/09/09 12:59:40;;;;;;;3.13;1.67;;;19.40;67.30;;;;;;6152181;23;20018;-82
2022/09/09 13:02:23;;;;;;;3.72;1.48;;;20.30;63.00;;;;;;6153693;23;20017;-75
2022/09/09 13:04:53;;;;;;;7.53;1.60;;;20.10;60.00;;;;;;6153649;23;20025;-81
2022/09/09 13:07:22;;;;;;;3.60;1.55;;;19.30;61.20;;;;;;6153005;23;20029;-81
2022/09/09 13:09:50;;;;;;;5.05;1.85;;;18.70;65.60;;;;;;6151322;23;20386;-81
2022/09/09 13:12:23;;;;;;;3.75;1.50;;;18.30;68.10;;;;;;6150804;23;20029;-81
2022/09/09 13:14:55;;;;;;;2.13;1.65;;;18.00;68.60;;;;;;6152506;23;20021;-80
2022/09/09 13:17:26;;;;;;;1.55;1.45;;;17.70;69.10;;;;;;6150137;23;20021;-81
2022/09/09 13:19:55;;;;;;;1.95;1.67;;;17.40;68.80;;;;;;6125838;23;20605;-80
2022/09/09 13:22:32;;;;;;;5.15;1.50;;;17.20;68.60;;;;;;6151933;23;20028;-81